createdAt,value
2022-11-05T00:00:18.405Z,100513.53
2022-11-05T00:03:03.312Z,100517.75
2022-11-05T00:05:48.237Z,100520.19
2022-11-05T00:08:33.285Z,100519.13
2022-11-05T00:10:59.733Z,100521.63
2022-11-05T00:13:44.925Z,100524.16
2022-11-05T00:16:40.279Z,100537.06
2022-11-05T00:19:06.848Z,100538.66
2022-11-05T00:21:52.950Z,100543.78
2022-11-05T00:24:38.152Z,100543.69
2022-11-05T00:27:04.672Z,100547.00
2022-11-05T00:29:31.148Z,100548.75
2022-11-05T00:31:57.560Z,100568.66
2022-11-05T00:34:24.000Z,100564.31
2022-11-05T00:36:50.457Z,100571.25
2022-11-05T00:39:16.906Z,100571.19
2022-11-05T00:41:43.378Z,100574.63
2022-11-05T00:44:28.488Z,100577.09
2022-11-05T00:47:14.859Z,100576.97
2022-11-05T00:49:41.276Z,100576.09
2022-11-05T00:52:26.184Z,100589.88
2022-11-05T00:54:52.607Z,100588.06
2022-11-05T00:57:18.992Z,100591.44
2022-11-05T00:59:45.392Z,100593.91
2022-11-05T01:02:11.887Z,100597.19
2022-11-05T01:04:38.418Z,100601.44
2022-11-05T01:07:04.820Z,100602.16
2022-11-05T01:09:31.242Z,100607.16
2022-11-05T01:11:57.693Z,100609.66
2022-11-05T01:14:24.193Z,100611.31
2022-11-05T01:16:50.593Z,100616.41
2022-11-05T01:19:17.050Z,100618.06
2022-11-05T01:21:43.439Z,100621.47
2022-11-05T01:24:10.710Z,100621.34
2022-11-05T01:26:37.122Z,100609.91
2022-11-05T01:29:03.666Z,100611.63
2022-11-05T01:31:30.127Z,100615.91
2022-11-05T01:33:56.549Z,100620.16
2022-11-05T01:36:22.959Z,100618.31
2022-11-05T01:38:49.418Z,100619.91
2022-11-05T01:41:15.819Z,100625.81
2022-11-05T01:43:54.512Z,100631.88
2022-11-05T01:46:24.479Z,100631.69
2022-11-05T01:48:52.770Z,100636.00
2022-11-05T01:51:23.016Z,100635.00
2022-11-05T01:53:52.985Z,100638.41
2022-11-05T01:56:41.387Z,100635.69
2022-11-05T01:59:17.167Z,100638.91
2022-11-05T02:01:44.999Z,100643.16
2022-11-05T02:04:15.754Z,100636.16
2022-11-05T02:06:46.060Z,100643.16
2022-11-05T02:09:20.742Z,100643.09
2022-11-05T02:11:47.571Z,100641.31
2022-11-05T02:14:13.994Z,100643.03
2022-11-05T02:16:58.718Z,100649.09
2022-11-05T02:19:43.865Z,100655.09
2022-11-05T02:22:43.020Z,100661.00
2022-11-05T02:25:15.578Z,100655.81
2022-11-05T02:28:19.457Z,100657.41
2022-11-05T02:31:10.074Z,100669.34
2022-11-05T02:33:58.183Z,100665.69
2022-11-05T02:36:39.648Z,100668.94
2022-11-05T02:39:30.314Z,100670.47
2022-11-05T02:42:38.280Z,100665.19
2022-11-05T02:45:37.554Z,100664.84
2022-11-05T02:48:06.889Z,100664.78
2022-11-05T02:50:55.063Z,100670.72
2022-11-05T02:53:40.040Z,100671.47
2022-11-05T02:56:22.733Z,100671.25
2022-11-05T02:58:49.210Z,100671.19
2022-11-05T03:01:15.777Z,100672.00
2022-11-05T03:04:09.528Z,100677.06
2022-11-05T03:06:51.234Z,100678.63
2022-11-05T03:09:36.265Z,100688.97
2022-11-05T03:12:14.787Z,100693.25
2022-11-05T03:14:52.986Z,100694.88
2022-11-05T03:17:34.874Z,100693.09
2022-11-05T03:20:19.263Z,100701.75
2022-11-05T03:22:51.395Z,100708.63
2022-11-05T03:25:20.728Z,100708.63
2022-11-05T03:27:50.245Z,100709.38
2022-11-05T03:30:18.512Z,100713.66
2022-11-05T03:32:51.133Z,100706.59
2022-11-05T03:35:20.499Z,100708.22
2022-11-05T03:37:49.386Z,100707.94
2022-11-05T03:40:16.786Z,100705.22
2022-11-05T03:42:46.110Z,100716.25
2022-11-05T03:45:19.788Z,100711.66
2022-11-05T03:47:47.615Z,100710.59
2022-11-05T03:50:26.120Z,100713.03
2022-11-05T03:52:54.228Z,100714.59
2022-11-05T03:55:27.164Z,100718.78
2022-11-05T03:57:55.208Z,100716.06
2022-11-05T04:00:22.190Z,100721.91
2022-11-05T04:02:48.680Z,100733.91
2022-11-05T04:05:15.327Z,100725.97
2022-11-05T04:08:01.857Z,100724.88
2022-11-05T04:11:06.714Z,100738.63
2022-11-05T04:13:33.348Z,100748.50
2022-11-05T04:16:18.181Z,100749.84
2022-11-05T04:18:44.620Z,100751.47
2022-11-05T04:21:29.563Z,100765.28
2022-11-05T04:24:08.568Z,100767.53
2022-11-05T04:26:40.388Z,100775.91
2022-11-05T04:29:26.058Z,100774.94
2022-11-05T04:31:52.779Z,100771.63
2022-11-05T04:34:19.418Z,100774.94
2022-11-05T04:36:46.293Z,100772.28
2022-11-05T04:39:12.701Z,100770.66
2022-11-05T04:41:39.118Z,100768.00
2022-11-05T04:44:05.595Z,100780.09
2022-11-05T04:46:32.029Z,100782.69
2022-11-05T04:48:58.447Z,100774.88
2022-11-05T04:51:24.927Z,100775.66
2022-11-05T04:53:51.333Z,100772.19
2022-11-05T04:56:22.695Z,100775.66
2022-11-05T04:58:49.157Z,100782.41
2022-11-05T05:01:20.794Z,100780.50
2022-11-05T05:03:48.613Z,100780.41
2022-11-05T05:06:15.207Z,100783.75
2022-11-05T05:08:41.804Z,100802.63
2022-11-05T05:11:11.444Z,100797.28
2022-11-05T05:13:37.869Z,100799.78
2022-11-05T05:16:24.136Z,100796.31
2022-11-05T05:18:51.394Z,100800.59
2022-11-05T05:21:37.883Z,100801.41
2022-11-05T05:24:09.206Z,100809.81
2022-11-05T05:26:36.847Z,100815.78
2022-11-05T05:29:04.240Z,100818.13
2022-11-05T05:31:30.892Z,100817.09
2022-11-05T05:33:57.421Z,100823.00
2022-11-05T05:36:24.215Z,100823.00
2022-11-05T05:38:50.629Z,100819.59
2022-11-05T05:41:17.156Z,100822.09
2022-11-05T05:43:43.800Z,100828.97
2022-11-05T05:46:12.670Z,100832.34
2022-11-05T05:48:39.230Z,100833.88
2022-11-05T05:51:10.701Z,100840.63
2022-11-05T05:53:37.495Z,100835.47
2022-11-05T05:56:04.854Z,100841.56
2022-11-05T05:58:37.480Z,100837.91
2022-11-05T06:01:06.764Z,100840.56
2022-11-05T06:03:33.565Z,100850.81
2022-11-05T06:06:03.813Z,100839.59
2022-11-05T06:08:31.053Z,100844.69
2022-11-05T06:10:57.850Z,100851.47
2022-11-05T06:13:24.557Z,100856.47
2022-11-05T06:15:50.961Z,100858.78
2022-11-05T06:18:17.383Z,100863.06
2022-11-05T06:20:43.863Z,100869.03
2022-11-05T06:23:10.459Z,100868.06
2022-11-05T06:25:41.074Z,100876.53
2022-11-05T06:28:07.881Z,100873.22
2022-11-05T06:30:34.317Z,100873.22
2022-11-05T06:33:06.844Z,100871.47
2022-11-05T06:35:33.359Z,100877.50
2022-11-05T06:38:02.869Z,100880.00
2022-11-05T06:40:29.564Z,100883.38
2022-11-05T06:42:55.979Z,100892.81
2022-11-05T06:45:22.575Z,100887.75
2022-11-05T06:47:54.956Z,100885.16
2022-11-05T06:50:21.353Z,100894.75
2022-11-05T06:53:04.195Z,100891.44
2022-11-05T06:55:31.216Z,100905.41
2022-11-05T06:57:58.049Z,100905.56
2022-11-05T07:00:24.977Z,100911.63
2022-11-05T07:02:51.414Z,100902.25
2022-11-05T07:05:18.118Z,100915.31
2022-11-05T07:07:45.118Z,100923.31
2022-11-05T07:10:16.950Z,100926.06
2022-11-05T07:12:43.724Z,100926.28
2022-11-05T07:15:11.604Z,100933.38
2022-11-05T07:17:38.743Z,100937.09
2022-11-05T07:20:06.916Z,100944.19
2022-11-05T07:22:34.791Z,100940.94
2022-11-05T07:25:01.211Z,100940.41
2022-11-05T07:27:27.756Z,100940.41
2022-11-05T07:29:54.188Z,100939.81
2022-11-05T07:32:20.642Z,100936.78
2022-11-05T07:34:47.248Z,100949.94
2022-11-05T07:37:16.599Z,100951.16
2022-11-05T07:39:43.114Z,100950.50
2022-11-05T07:42:13.260Z,100955.16
2022-11-05T07:44:39.687Z,100957.09
2022-11-05T07:47:06.097Z,100965.97
2022-11-05T07:49:32.484Z,100959.31
2022-11-05T07:51:58.975Z,100963.91
2022-11-05T07:54:26.588Z,100973.75
2022-11-05T07:56:53.104Z,100974.00
2022-11-05T07:59:19.673Z,100981.97
2022-11-05T08:01:46.269Z,100981.38
2022-11-05T08:04:12.802Z,100978.28
2022-11-05T08:06:39.208Z,100971.69
2022-11-05T08:09:05.743Z,100979.72
2022-11-05T08:11:32.231Z,100976.53
2022-11-05T08:13:58.649Z,100986.13
2022-11-05T08:16:25.108Z,100984.72
2022-11-05T08:18:51.487Z,100982.22
2022-11-05T08:21:18.021Z,100983.31
2022-11-05T08:23:45.181Z,100983.63
2022-11-05T08:26:11.639Z,100983.91
2022-11-05T08:28:38.042Z,100986.88
2022-11-05T08:31:04.533Z,100986.13
2022-11-05T08:33:31.387Z,100991.56
2022-11-05T08:36:01.844Z,100988.59
2022-11-05T08:38:28.285Z,100995.56
2022-11-05T08:40:57.526Z,100998.50
2022-11-05T08:43:24.281Z,100995.09
2022-11-05T08:45:50.784Z,100994.50
2022-11-05T08:48:18.356Z,101000.56
2022-11-05T08:50:46.826Z,100998.19
2022-11-05T08:53:13.628Z,101003.78
2022-11-05T08:55:40.726Z,101011.09
2022-11-05T08:58:12.481Z,101014.84
2022-11-05T09:00:39.823Z,101017.44
2022-11-05T09:03:08.147Z,101018.69
2022-11-05T09:05:37.985Z,101011.94
2022-11-05T09:08:09.851Z,101020.13
2022-11-05T09:10:37.037Z,101015.06
2022-11-05T09:13:04.416Z,101021.44
2022-11-05T09:15:31.662Z,101017.25
2022-11-05T09:17:58.099Z,101025.22
2022-11-05T09:20:24.636Z,101027.81
2022-11-05T09:22:51.562Z,101027.94
2022-11-05T09:25:18.057Z,101036.00
2022-11-05T09:27:44.601Z,101034.25
2022-11-05T09:30:12.445Z,101033.66
2022-11-05T09:32:38.851Z,101041.59
2022-11-05T09:35:05.781Z,101048.41
2022-11-05T09:37:32.475Z,101054.06
2022-11-05T09:39:58.944Z,101060.25
2022-11-05T09:42:31.395Z,101061.22
2022-11-05T09:45:21.408Z,101064.50
2022-11-05T09:48:00.684Z,101063.88
2022-11-05T09:50:37.116Z,101064.06
2022-11-05T09:53:04.000Z,101072.81
2022-11-05T09:55:36.782Z,101071.22
2022-11-05T09:58:09.704Z,101074.69
2022-11-05T10:00:36.205Z,101074.09
2022-11-05T10:03:14.244Z,101081.94
2022-11-05T10:05:41.182Z,101084.66
2022-11-05T10:08:18.268Z,101076.19
2022-11-05T10:10:50.187Z,101079.88
2022-11-05T10:13:25.179Z,101083.41
2022-11-05T10:15:57.673Z,101091.31
2022-11-05T10:18:31.974Z,101087.75
2022-11-05T10:20:58.811Z,101085.44
2022-11-05T10:23:26.526Z,101083.81
2022-11-05T10:26:05.936Z,101095.31
2022-11-05T10:28:33.581Z,101097.06
2022-11-05T10:31:03.231Z,101099.88
2022-11-05T10:33:36.020Z,101098.28
2022-11-05T10:36:05.702Z,101099.34
2022-11-05T10:38:32.655Z,101102.72
2022-11-05T10:41:20.253Z,101106.59
2022-11-05T10:43:51.973Z,101110.13
2022-11-05T10:46:40.230Z,101110.31
2022-11-05T10:49:38.976Z,101111.25
2022-11-05T10:52:35.537Z,101108.66
2022-11-05T10:55:05.262Z,101099.41
2022-11-05T10:57:37.512Z,101101.16
2022-11-05T11:00:19.142Z,101106.47
2022-11-05T11:02:55.884Z,101112.59
2022-11-05T11:05:26.718Z,101115.19
2022-11-05T11:07:59.759Z,101102.16
2022-11-05T11:10:26.879Z,101101.66
2022-11-05T11:12:53.911Z,101099.06
2022-11-05T11:15:20.337Z,101099.94
2022-11-05T11:17:47.361Z,101098.47
2022-11-05T11:20:29.842Z,101105.47
2022-11-05T11:22:59.249Z,101102.16
2022-11-05T11:25:27.892Z,101101.31
2022-11-05T11:27:54.654Z,101101.38
2022-11-05T11:30:21.780Z,101103.31
2022-11-05T11:32:49.499Z,101097.41
2022-11-05T11:35:23.048Z,101094.88
2022-11-05T11:37:52.323Z,101101.97
2022-11-05T11:40:49.620Z,101090.59
2022-11-05T11:43:43.685Z,101095.94
2022-11-05T11:46:20.108Z,101102.19
2022-11-05T11:48:48.237Z,101098.84
2022-11-05T11:51:35.107Z,101102.50
2022-11-05T11:54:02.150Z,101098.19
2022-11-05T11:56:30.277Z,101087.72
2022-11-05T11:59:13.044Z,101097.50
2022-11-05T12:02:17.046Z,101097.50
2022-11-05T12:04:53.944Z,101096.94
2022-11-05T12:07:35.292Z,101094.38
2022-11-05T12:10:30.692Z,101096.16
2022-11-05T12:13:18.475Z,101095.28
2022-11-05T12:15:55.132Z,101089.84
2022-11-05T12:18:46.560Z,101092.31
2022-11-05T12:21:52.210Z,101084.53
2022-11-05T12:24:26.313Z,101086.44
2022-11-05T12:27:02.977Z,101091.00
2022-11-05T12:29:54.226Z,101089.41
2022-11-05T12:32:51.593Z,101093.19
2022-11-05T12:35:29.111Z,101086.66
2022-11-05T12:38:05.236Z,101086.03
2022-11-05T12:40:49.944Z,101084.47
2022-11-05T12:43:34.503Z,101091.53
2022-11-05T12:46:19.142Z,101093.09
2022-11-05T12:49:03.214Z,101093.84
2022-11-05T12:51:53.442Z,101092.06
2022-11-05T12:54:49.097Z,101089.31
2022-11-05T13:00:02.303Z,101081.63
2022-11-05T13:02:34.503Z,101084.22
2022-11-05T13:05:04.007Z,101078.19
2022-11-05T13:07:34.365Z,101098.00
2022-11-05T13:10:28.337Z,101104.91
2022-11-05T13:13:13.679Z,101097.22
2022-11-05T13:15:48.051Z,101097.94
2022-11-05T13:18:19.067Z,101104.03
2022-11-05T13:20:50.160Z,101104.75
2022-11-05T13:23:26.022Z,101107.38
2022-11-05T13:26:19.511Z,101091.38
2022-11-05T13:28:52.361Z,101093.25
2022-11-05T13:31:21.817Z,101096.50
2022-11-05T13:33:49.685Z,101099.22
2022-11-05T13:37:16.755Z,101098.28
2022-11-05T13:39:45.792Z,101095.50
2022-11-05T13:42:46.072Z,101100.53
2022-11-05T13:45:37.417Z,101101.41
2022-11-05T13:48:34.665Z,101092.63
2022-11-05T13:51:28.378Z,101094.44
2022-11-05T13:54:33.670Z,101098.69
2022-11-05T13:57:34.387Z,101100.38
2022-11-05T14:00:19.398Z,101097.81
2022-11-05T14:02:51.122Z,101099.47
2022-11-05T14:05:30.824Z,101094.22
2022-11-05T14:07:59.521Z,101095.84
2022-11-05T14:10:30.743Z,101095.75
2022-11-05T14:12:58.889Z,101102.66
2022-11-05T14:15:28.114Z,101104.38
2022-11-05T14:18:06.115Z,101090.38
2022-11-05T14:20:32.441Z,101104.22
2022-11-05T14:23:17.297Z,101102.50
2022-11-05T14:25:43.753Z,101106.88
2022-11-05T14:28:35.018Z,101111.94
2022-11-05T14:31:19.637Z,101111.84
2022-11-05T14:33:59.700Z,101110.03
2022-11-05T14:36:28.079Z,101109.97
2022-11-05T14:39:01.416Z,101105.63
2022-11-05T14:41:30.468Z,101107.28
2022-11-05T14:44:04.909Z,101109.72
2022-11-05T14:46:47.141Z,101116.63
2022-11-05T14:49:26.117Z,101116.41
2022-11-05T14:51:55.841Z,101115.53
2022-11-05T14:54:42.296Z,101122.31
2022-11-05T14:57:13.624Z,101117.91
2022-11-05T14:59:57.649Z,101122.16
2022-11-05T15:02:27.955Z,101121.91
2022-11-05T15:05:33.168Z,101120.00
2022-11-05T15:08:00.085Z,101117.25
2022-11-05T15:10:30.376Z,101125.66
2022-11-05T15:13:03.600Z,101129.84
2022-11-05T15:15:42.625Z,101123.59
2022-11-05T15:18:15.092Z,101138.97
2022-11-05T15:20:42.825Z,101139.63
2022-11-05T15:23:21.129Z,101136.84
2022-11-05T15:26:13.705Z,101136.56
2022-11-05T15:28:43.893Z,101142.47
2022-11-05T15:31:13.342Z,101138.81
2022-11-05T15:33:40.969Z,101140.38
2022-11-05T15:36:24.854Z,101149.75
2022-11-05T15:39:15.148Z,101143.47
2022-11-05T15:41:38.437Z,101137.19
2022-11-05T15:44:04.893Z,101142.13
2022-11-05T15:46:31.376Z,101153.25
2022-11-05T15:49:01.896Z,101151.28
2022-11-05T15:51:29.418Z,101150.19
2022-11-05T15:56:51.182Z,101144.47
2022-11-05T15:59:22.987Z,101145.97
2022-11-05T16:02:03.164Z,101148.28
2022-11-05T16:04:32.236Z,101152.31
2022-11-05T16:07:01.601Z,101154.56
2022-11-05T16:09:30.736Z,101156.00
2022-11-05T16:12:19.308Z,101158.16
2022-11-05T16:15:04.486Z,101160.38
2022-11-05T16:17:45.318Z,101160.94
2022-11-05T16:20:32.155Z,101168.31
2022-11-05T16:23:00.967Z,101172.19
2022-11-05T16:25:40.407Z,101171.91
2022-11-05T16:28:20.584Z,101172.41
2022-11-05T16:30:57.955Z,101170.38
2022-11-05T16:33:27.055Z,101176.16
2022-11-05T16:35:53.543Z,101176.03
2022-11-05T16:38:20.210Z,101173.13
2022-11-05T16:40:46.688Z,101175.56
2022-11-05T16:43:21.806Z,101180.44
2022-11-05T16:45:48.284Z,101185.38
2022-11-05T16:48:15.572Z,101190.34
2022-11-05T16:50:42.482Z,101190.13
2022-11-05T16:53:08.963Z,101184.69
2022-11-05T16:55:37.951Z,101195.72
2022-11-05T16:58:04.532Z,101197.25
2022-11-05T17:00:31.011Z,101201.38
2022-11-05T17:02:57.698Z,101204.75
2022-11-05T17:05:31.119Z,101203.81
2022-11-05T17:07:57.889Z,101203.72
2022-11-05T17:10:25.468Z,101207.94
2022-11-05T17:12:52.249Z,101198.34
2022-11-05T17:15:22.395Z,101201.66
2022-11-05T17:17:48.935Z,101205.84
2022-11-05T17:20:38.540Z,101202.22
2022-11-05T17:23:06.489Z,101203.03
2022-11-05T17:25:33.223Z,101212.41
2022-11-05T17:28:00.022Z,101206.19
2022-11-05T17:30:26.481Z,101209.59
2022-11-05T17:32:53.144Z,101203.34
2022-11-05T17:35:20.023Z,101208.38
2022-11-05T17:37:46.747Z,101201.25
2022-11-05T17:40:16.137Z,101207.88
2022-11-05T17:42:42.624Z,101207.72
2022-11-05T17:45:10.404Z,101215.31
2022-11-05T17:47:37.154Z,101204.66
2022-11-05T17:50:04.891Z,101215.63
2022-11-05T17:52:31.423Z,101212.88
2022-11-05T17:54:57.809Z,101205.88
2022-11-05T17:57:24.231Z,101209.19
2022-11-05T17:59:50.650Z,101214.97
2022-11-05T18:02:17.140Z,101218.34
2022-11-05T18:04:43.634Z,101230.31
2022-11-05T18:07:10.474Z,101224.97
2022-11-05T18:09:37.662Z,101230.00
2022-11-05T18:12:04.553Z,101236.78
2022-11-05T18:14:31.104Z,101228.84
2022-11-05T18:17:00.130Z,101222.53
2022-11-05T18:19:27.650Z,101237.88
2022-11-05T18:21:54.628Z,101240.31
2022-11-05T18:24:21.871Z,101237.53
2022-11-05T18:26:48.504Z,101231.31
2022-11-05T18:29:15.129Z,101232.84
2022-11-05T18:31:41.635Z,101231.88
2022-11-05T18:34:10.301Z,101231.66
2022-11-05T18:36:36.708Z,101236.66
2022-11-05T18:39:04.416Z,101227.78
2022-11-05T18:41:31.461Z,101224.25
2022-11-05T18:44:01.926Z,101220.44
2022-11-05T18:46:56.423Z,101215.94
2022-11-05T18:49:16.411Z,101216.66
2022-11-05T18:51:42.814Z,101220.84
2022-11-05T18:54:09.919Z,101229.41
2022-11-05T18:56:37.019Z,101230.19
2022-11-05T18:59:34.637Z,101235.25
2022-11-05T19:01:50.039Z,101235.06
2022-11-05T19:04:17.789Z,101233.13
2022-11-05T19:06:44.244Z,101228.78
2022-11-05T19:09:12.010Z,101223.44
2022-11-05T19:11:39.550Z,101222.28
2022-11-05T19:14:06.140Z,101217.81
2022-11-05T19:16:32.807Z,101229.03
2022-11-05T19:19:01.187Z,101227.25
2022-11-05T19:21:28.394Z,101223.72
2022-11-05T19:23:57.053Z,101225.50
2022-11-05T19:26:28.551Z,101228.88
2022-11-05T19:28:58.156Z,101224.44
2022-11-05T19:31:24.608Z,101219.94
2022-11-05T19:33:51.763Z,101219.88
2022-11-05T19:36:20.565Z,101230.09
2022-11-05T19:38:49.581Z,101233.50
2022-11-05T19:41:21.448Z,101225.66
2022-11-05T19:43:47.950Z,101235.91
2022-11-05T19:46:16.962Z,101240.88
2022-11-05T19:48:44.175Z,101237.34
2022-11-05T19:51:15.312Z,101230.47
2022-11-05T19:53:42.171Z,101233.88
2022-11-05T19:56:12.339Z,101230.47
2022-11-05T19:58:38.758Z,101226.00
2022-11-05T20:01:05.415Z,101230.28
2022-11-05T20:03:31.994Z,101236.31
2022-11-05T20:06:03.518Z,101228.50
2022-11-05T20:08:30.049Z,101232.84
2022-11-05T20:10:56.684Z,101222.44
2022-11-05T20:13:23.712Z,101228.41
2022-11-05T20:15:50.236Z,101230.03
2022-11-05T20:18:16.763Z,101230.81
2022-11-05T20:20:44.357Z,101238.47
2022-11-05T20:23:11.136Z,101234.91
2022-11-05T20:25:37.625Z,101240.06
2022-11-05T20:28:04.529Z,101225.50
2022-11-05T20:30:31.041Z,101232.44
2022-11-05T20:32:57.689Z,101222.75
2022-11-05T20:35:24.643Z,101226.22
2022-11-05T20:37:53.907Z,101238.22
2022-11-05T20:40:20.851Z,101244.13
2022-11-05T20:42:47.281Z,101236.31
2022-11-05T20:45:13.740Z,101237.03
2022-11-05T20:47:40.210Z,101245.56
2022-11-05T20:50:07.470Z,101236.84
2022-11-05T20:52:33.891Z,101229.84
2022-11-05T20:55:01.148Z,101229.75
2022-11-05T20:57:27.680Z,101243.44
2022-11-05T20:59:54.385Z,101243.22
2022-11-05T21:02:20.842Z,101252.66
2022-11-05T21:04:47.656Z,101248.31
2022-11-05T21:07:14.091Z,101248.22
2022-11-05T21:09:40.518Z,101245.47
2022-11-05T21:12:12.915Z,101249.63
2022-11-05T21:14:41.375Z,101244.38
2022-11-05T21:17:09.699Z,101255.50
2022-11-05T21:19:36.444Z,101245.06
2022-11-05T21:22:04.565Z,101241.59
2022-11-05T21:24:32.211Z,101243.28
2022-11-05T21:26:58.643Z,101239.81
2022-11-05T21:29:25.097Z,101235.47
2022-11-05T21:31:51.709Z,101228.63
2022-11-05T21:34:18.973Z,101242.50
2022-11-05T21:36:45.789Z,101227.91
2022-11-05T21:39:13.744Z,101231.50
2022-11-05T21:41:40.487Z,101241.81
2022-11-05T21:44:06.918Z,101237.72
2022-11-05T21:46:33.392Z,101237.72
2022-11-05T21:48:59.817Z,101232.75
2022-11-05T21:51:44.981Z,101228.47
2022-11-05T21:54:29.949Z,101231.13
2022-11-05T21:57:14.963Z,101225.97
2022-11-05T22:00:07.737Z,101227.75
2022-11-05T22:02:34.386Z,101232.91
2022-11-05T22:05:02.188Z,101222.59
2022-11-05T22:07:34.647Z,101229.53
2022-11-05T22:10:01.525Z,101224.38
2022-11-05T22:12:28.664Z,101221.94
2022-11-05T22:14:55.101Z,101227.09
2022-11-05T22:17:21.570Z,101217.66
2022-11-05T22:19:47.975Z,101214.28
2022-11-05T22:22:14.385Z,101225.47
2022-11-05T22:24:41.207Z,101216.13
2022-11-05T22:27:11.357Z,101215.34
2022-11-05T22:29:37.788Z,101220.59
2022-11-05T22:32:05.055Z,101218.19
2022-11-05T22:34:31.793Z,101220.75
2022-11-05T22:36:58.712Z,101219.78
2022-11-05T22:39:25.388Z,101216.41
2022-11-05T22:41:56.352Z,101220.75
2022-11-05T22:44:23.264Z,101222.53
2022-11-05T22:46:49.809Z,101215.69
2022-11-05T22:49:16.358Z,101216.56
2022-11-05T22:51:42.951Z,101203.66
2022-11-05T22:54:09.658Z,101208.81
2022-11-05T22:56:40.804Z,101213.19
2022-11-05T22:59:10.268Z,101210.59
2022-11-05T23:01:36.920Z,101204.69
2022-11-05T23:04:03.824Z,101215.00
2022-11-05T23:06:50.482Z,101207.13
2022-11-05T23:09:47.712Z,101202.88
2022-11-05T23:12:31.842Z,101204.47
2022-11-05T23:14:59.247Z,101200.22
2022-11-05T23:17:45.068Z,101206.34
2022-11-05T23:20:15.202Z,101206.47
2022-11-05T23:23:00.228Z,101202.09
2022-11-05T23:25:26.701Z,101205.66
2022-11-05T23:27:53.982Z,101202.28
2022-11-05T23:30:25.945Z,101203.25
2022-11-05T23:32:53.485Z,101192.94
2022-11-05T23:35:40.003Z,101200.75
2022-11-05T23:38:25.233Z,101193.09
2022-11-05T23:41:10.327Z,101192.38
2022-11-05T23:43:55.434Z,101177.78
2022-11-05T23:46:40.501Z,101190.09
2022-11-05T23:49:06.983Z,101196.22
2022-11-05T23:51:33.543Z,101197.91
2022-11-05T23:53:59.990Z,101186.88
2022-11-05T23:56:26.444Z,101185.25
2022-11-05T23:58:52.913Z,101183.66
